Time;durP1;ratioP1;P1;durP2;ratioP2;P2;SDS_P1;SDS_P2;PMS_P1;PMS_P2;Temp;Humidity;BMP_temperature;BMP_pressure;BME280_temperature;BME280_humidity;BME280_pressure;Samples;Min_cycle;Max_cycle;Signal;HPM_P1;HPM_P2
2023/04/14 00:00:50;;;;;;;;;17.80;17.40;;;;;15.90;34.29;97806.06;5089180;28;8840;-74
2023/04/14 00:03:18;;;;;;;;;15.00;15.00;;;;;15.81;34.59;97802.25;5077873;28;8886;-74
2023/04/14 00:05:48;;;;;;;;;17.40;17.40;;;;;15.79;34.63;97805.03;5077231;28;9054;-75
2023/04/14 00:08:16;;;;;;;;;20.60;18.60;;;;;15.77;34.78;97800.78;5083443;28;8851;-77
2023/04/14 00:10:45;;;;;;;;;16.00;14.80;;;;;15.71;34.86;97799.41;5082963;28;8866;-75
2023/04/14 00:13:15;;;;;;;;;17.20;16.40;;;;;15.74;34.91;97796.56;5090769;28;8841;-74
2023/04/14 00:15:44;;;;;;;;;14.00;14.00;;;;;15.67;34.80;97789.16;5090411;28;8850;-75
2023/04/14 00:18:13;;;;;;;;;21.40;18.20;;;;;15.59;35.31;97779.91;5090260;28;8862;-77
2023/04/14 00:20:42;;;;;;;;;19.40;19.40;;;;;15.62;35.37;97781.50;5099517;28;8828;-74
2023/04/14 00:23:10;;;;;;;;;18.60;16.80;;;;;15.55;35.53;97782.88;5072462;28;8872;-75
2023/04/14 00:25:40;;;;;;;;;16.60;16.60;;;;;15.59;35.58;97790.50;5090174;28;8842;-76
2023/04/14 00:28:08;;;;;;;;;22.80;19.40;;;;;15.51;35.72;97781.38;5090282;28;9729;-75
2023/04/14 00:30:38;;;;;;;;;17.40;17.00;;;;;15.32;36.42;97772.06;5090082;28;8842;-76
2023/04/14 00:33:07;;;;;;;;;18.40;18.00;;;;;15.16;36.62;97774.91;5072063;28;8841;-75
2023/04/14 00:35:36;;;;;;;;;19.00;16.40;;;;;15.23;36.56;97784.13;5059802;28;8943;-75
2023/04/14 00:38:05;;;;;;;;;20.20;19.00;;;;;15.03;36.84;97787.28;5072007;28;9024;-76
2023/04/14 00:40:59;;;;;;;;;16.20;15.00;;;;;15.13;36.72;97793.66;5096261;28;8961;-74
2023/04/14 00:43:29;;;;;;;;;19.60;19.00;;;;;15.10;36.61;97783.28;5062949;28;8886;-75
2023/04/14 00:46:26;;;;;;;;;17.60;16.20;;;;;15.08;36.86;97779.88;5069893;28;8830;-75
2023/04/14 00:49:20;;;;;;;;;16.40;15.20;;;;;14.96;36.86;97783.34;5088266;28;8878;-75
2023/04/14 00:51:50;;;;;;;;;14.60;14.20;;;;;14.84;36.90;97788.50;5091687;28;9619;-76
2023/04/14 00:54:21;;;;;;;;;17.20;16.60;;;;;14.78;37.05;97783.63;5089697;28;8858;-75
2023/04/14 00:56:51;;;;;;;;;13.60;13.60;;;;;14.72;37.08;97783.19;5072040;28;9012;-75
2023/04/14 00:59:21;;;;;;;;;12.60;12.60;;;;;14.64;37.24;97804.81;5054881;28;8850;-74
2023/04/14 01:01:51;;;;;;;;;18.20;13.00;;;;;14.61;37.20;97802.38;5046658;28;8860;-74
2023/04/14 01:04:21;;;;;;;;;19.80;17.00;;;;;14.56;37.08;97804.47;5089735;28;8864;-74
2023/04/14 01:06:50;;;;;;;;;17.00;17.00;;;;;14.62;36.90;97802.28;5088477;28;8924;-74
2023/04/14 01:09:18;;;;;;;;;18.20;14.60;;;;;14.56;36.96;97799.19;5073619;28;8861;-75
2023/04/14 01:11:59;;;;;;;;;16.20;14.60;;;;;14.64;36.94;97800.41;5038503;28;8845;-73
2023/04/14 01:14:35;;;;;;;;;13.60;13.00;;;;;14.59;37.29;97806.94;5089489;28;8853;-75
2023/04/14 01:17:14;;;;;;;;;17.80;16.40;;;;;14.57;37.22;97801.75;5046773;28;8857;-74
2023/04/14 01:20:03;;;;;;;;;17.00;14.60;;;;;14.70;37.14;97783.28;5038059;28;9616;-75
2023/04/14 01:22:37;;;;;;;;;18.00;15.00;;;;;14.61;37.32;97778.59;5069582;28;8849;-74
2023/04/14 01:25:27;;;;;;;;;16.80;16.60;;;;;14.45;37.72;97795.47;5056443;28;9593;-75
2023/04/14 01:28:11;;;;;;;;;17.20;14.40;;;;;14.53;37.73;97796.72;5065983;28;9551;-75
2023/04/14 01:30:59;;;;;;;;;16.00;14.40;;;;;14.53;37.61;97794.97;5049477;28;9006;-74
2023/04/14 01:33:36;;;;;;;;;13.60;13.40;;;;;14.46;37.89;97775.16;5049646;28;9670;-75
2023/04/14 01:36:11;;;;;;;;;19.20;16.20;;;;;14.31;38.32;97776.16;5060276;28;8883;-74
2023/04/14 01:38:44;;;;;;;;;17.20;15.40;;;;;14.28;38.40;97769.25;5049274;28;9689;-74
2023/04/14 01:41:16;;;;;;;;;11.60;11.60;;;;;14.40;38.17;97767.63;5040590;28;8871;-76
2023/04/14 01:43:53;;;;;;;;;15.00;15.00;;;;;14.39;38.20;97761.47;5048854;28;8864;-75
2023/04/14 01:46:21;;;;;;;;;13.00;13.00;;;;;14.37;38.25;97757.25;5057817;28;8864;-76
2023/04/14 01:48:52;;;;;;;;;16.60;15.00;;;;;14.27;38.60;97764.94;5039955;28;8913;-74
2023/04/14 01:51:23;;;;;;;;;14.40;12.60;;;;;14.32;38.81;97756.69;5046086;28;8874;-74
2023/04/14 01:53:56;;;;;;;;;13.20;13.20;;;;;14.33;38.73;97759.22;5075128;28;8847;-73
2023/04/14 01:56:26;;;;;;;;;17.00;16.20;;;;;14.29;38.78;97752.47;5069344;28;8903;-72
2023/04/14 01:58:57;;;;;;;;;18.00;16.20;;;;;14.17;39.08;97743.53;5085564;28;8864;-73
2023/04/14 02:01:28;;;;;;;;;16.60;15.40;;;;;14.17;39.01;97747.94;5066044;28;9599;-75
2023/04/14 02:04:01;;;;;;;;;15.60;13.40;;;;;14.15;39.17;97748.06;5074351;28;8945;-75
2023/04/14 02:06:31;;;;;;;;;17.80;15.00;;;;;14.12;39.13;97750.06;5031411;28;9008;-75
2023/04/14 02:09:02;;;;;;;;;15.80;15.80;;;;;14.24;38.96;97743.97;5065312;28;9518;-75
2023/04/14 02:11:33;;;;;;;;;19.00;15.00;;;;;14.30;38.77;97730.38;5061124;28;8863;-75
2023/04/14 02:14:03;;;;;;;;;14.20;13.20;;;;;14.27;39.08;97730.56;5065385;28;8836;-74
2023/04/14 02:16:35;;;;;;;;;13.00;13.00;;;;;14.37;38.87;97723.72;5057577;28;9006;-76
2023/04/14 02:19:06;;;;;;;;;14.00;14.00;;;;;14.37;39.00;97718.44;5071905;28;8875;-74
2023/04/14 02:21:35;;;;;;;;;14.80;13.40;;;;;14.29;39.05;97713.66;5035611;28;8850;-74
2023/04/14 02:24:05;;;;;;;;;12.00;10.60;;;;;14.26;39.09;97720.94;5087983;28;8858;-75
2023/04/14 02:26:39;;;;;;;;;17.00;16.40;;;;;14.32;39.05;97717.91;5053871;28;8967;-75
2023/04/14 02:29:12;;;;;;;;;16.00;15.20;;;;;14.40;38.96;97705.03;5076951;28;8938;-75
2023/04/14 02:31:46;;;;;;;;;16.60;15.00;;;;;14.38;38.95;97693.72;5088856;28;8843;-73
2023/04/14 02:34:23;;;;;;;;;15.00;14.80;;;;;14.34;39.13;97702.78;5088927;28;8867;-74
2023/04/14 02:36:55;;;;;;;;;14.80;14.80;;;;;14.30;39.14;97696.03;5075613;28;8850;-74
2023/04/14 02:39:31;;;;;;;;;17.00;17.00;;;;;14.37;38.96;97699.94;5075800;28;8854;-76
2023/04/14 02:42:04;;;;;;;;;14.20;13.80;;;;;14.36;38.92;97705.34;5089504;28;8865;-75
2023/04/14 02:44:38;;;;;;;;;13.80;13.20;;;;;14.39;38.92;97700.69;5077457;28;8882;-76
2023/04/14 02:47:10;;;;;;;;;11.40;11.00;;;;;14.37;38.71;97699.09;5093425;28;9020;-75
2023/04/14 02:49:49;;;;;;;;;13.00;11.80;;;;;14.44;38.55;97705.69;5037307;28;8850;-73
2023/04/14 02:52:23;;;;;;;;;13.60;13.60;;;;;14.38;38.58;97703.44;5105304;28;8835;-75
2023/04/14 02:54:56;;;;;;;;;16.40;14.00;;;;;14.40;38.45;97704.19;5090310;28;8836;-73
2023/04/14 02:57:26;;;;;;;;;14.20;12.00;;;;;14.32;38.30;97706.47;5022890;28;8842;-75
2023/04/14 02:59:57;;;;;;;;;15.20;12.80;;;;;14.23;38.38;97700.00;5036347;28;8856;-74
2023/04/14 03:02:27;;;;;;;;;11.20;11.20;;;;;14.36;37.99;97702.69;5046104;28;8855;-74
2023/04/14 03:05:08;;;;;;;;;11.60;10.40;;;;;14.42;37.87;97699.66;5027179;28;8870;-75
2023/04/14 03:07:47;;;;;;;;;15.80;13.40;;;;;14.40;37.97;97701.53;5017808;28;8847;-74
2023/04/14 03:10:20;;;;;;;;;13.40;12.40;;;;;14.29;38.12;97704.88;5043809;28;9580;-74
2023/04/14 03:12:50;;;;;;;;;13.80;13.00;;;;;14.25;38.00;97696.31;5030700;28;8974;-73
2023/04/14 03:15:21;;;;;;;;;18.40;17.60;;;;;14.19;38.09;97694.06;5047687;28;8907;-75
2023/04/14 03:17:54;;;;;;;;;15.80;13.20;;;;;14.30;37.76;97701.31;5028176;28;8939;-74
2023/04/14 03:20:27;;;;;;;;;14.40;12.80;;;;;14.38;37.50;97692.88;5031519;28;8889;-73
2023/04/14 03:23:03;;;;;;;;;11.60;11.60;;;;;14.40;37.36;97690.97;5048574;28;8870;-75
2023/04/14 03:25:37;;;;;;;;;12.20;10.40;;;;;14.38;37.31;97688.41;5031553;28;8857;-76
2023/04/14 03:28:15;;;;;;;;;11.60;11.60;;;;;14.51;36.89;97690.22;5038277;28;8844;-74
2023/04/14 03:30:51;;;;;;;;;12.20;11.40;;;;;14.55;36.60;97689.09;5050898;28;8867;-75
2023/04/14 03:33:23;;;;;;;;;13.40;13.00;;;;;14.47;36.44;97686.97;5050353;28;8901;-74
2023/04/14 03:35:57;;;;;;;;;13.80;11.40;;;;;14.59;36.27;97688.78;5052767;28;8863;-75
2023/04/14 03:38:28;;;;;;;;;22.40;20.60;;;;;14.52;36.02;97684.84;5066513;28;8907;-75
2023/04/14 03:41:03;;;;;;;;;11.40;11.20;;;;;14.63;35.78;97689.44;5095583;28;8848;-75
2023/04/14 03:43:33;;;;;;;;;11.40;10.20;;;;;14.52;36.06;97674.28;5064976;28;8870;-73
2023/04/14 03:46:15;;;;;;;;;10.20;9.60;;;;;14.59;36.02;97682.66;5092309;28;8844;-75
2023/04/14 03:48:46;;;;;;;;;13.60;11.00;;;;;14.42;35.90;97673.22;5089592;28;8861;-75
2023/04/14 03:51:21;;;;;;;;;16.00;16.00;;;;;14.45;35.92;97675.63;5090646;28;8847;-74
2023/04/14 03:53:51;;;;;;;;;9.40;9.40;;;;;14.14;36.61;97682.94;5072581;28;8887;-73
2023/04/14 03:56:22;;;;;;;;;10.40;9.80;;;;;14.11;36.74;97677.88;5072732;28;8842;-74
2023/04/14 03:58:54;;;;;;;;;13.00;9.80;;;;;14.16;36.38;97678.41;5038623;28;8826;-75
2023/04/14 04:01:25;;;;;;;;;10.00;10.00;;;;;14.13;36.42;97685.69;5090726;28;8880;-76
2023/04/14 04:03:55;;;;;;;;;12.20;11.00;;;;;14.24;36.58;97678.78;5073042;28;8870;-76
2023/04/14 04:06:27;;;;;;;;;11.80;10.80;;;;;14.17;37.54;97679.25;5090031;28;8937;-75
2023/04/14 04:08:59;;;;;;;;;13.00;12.20;;;;;14.18;37.57;97675.69;5092945;28;8847;-77
2023/04/14 04:11:30;;;;;;;;;12.00;11.20;;;;;14.24;37.70;97665.56;5076402;28;9021;-76
2023/04/14 04:14:00;;;;;;;;;10.80;9.80;;;;;14.02;37.79;97662.63;5092901;28;8881;-76
2023/04/14 04:16:30;;;;;;;;;19.40;19.00;;;;;13.83;37.89;97665.63;5092765;28;8866;-74
2023/04/14 04:19:04;;;;;;;;;13.20;12.60;;;;;13.70;37.79;97660.25;5108758;28;8856;-75
2023/04/14 04:21:38;;;;;;;;;12.00;12.00;;;;;13.67;37.98;97663.06;5049318;28;8838;-75
2023/04/14 04:24:08;;;;;;;;;13.60;11.60;;;;;13.64;37.78;97672.03;5048274;28;9126;-76
2023/04/14 04:26:38;;;;;;;;;10.40;10.20;;;;;13.65;37.60;97657.03;5049799;28;8888;-75
2023/04/14 04:29:08;;;;;;;;;15.00;11.40;;;;;13.60;37.81;97640.63;5029429;28;9021;-75
2023/04/14 04:31:40;;;;;;;;;10.60;10.60;;;;;13.36;38.12;97640.44;5057782;28;8904;-75
2023/04/14 04:34:10;;;;;;;;;12.40;11.60;;;;;13.35;37.96;97638.72;5057596;28;8984;-76
2023/04/14 04:36:43;;;;;;;;;9.00;9.00;;;;;13.30;37.83;97639.84;5043069;28;8875;-74
2023/04/14 04:39:12;;;;;;;;;12.00;10.60;;;;;13.31;37.79;97638.91;5048772;28;8856;-75
2023/04/14 04:41:44;;;;;;;;;11.60;11.40;;;;;13.22;37.72;97643.91;4985711;28;8952;-75
2023/04/14 04:44:13;;;;;;;;;9.00;9.00;;;;;13.18;37.75;97632.69;5047404;28;8888;-74
2023/04/14 04:46:50;;;;;;;;;10.40;9.20;;;;;13.02;37.75;97632.81;5016580;28;9679;-75
2023/04/14 04:49:19;;;;;;;;;11.20;9.00;;;;;12.92;37.45;97626.41;5048024;28;8859;-73
2023/04/14 04:51:50;;;;;;;;;7.60;7.60;;;;;12.80;37.46;97617.41;4983751;28;9590;-74
2023/04/14 04:54:20;;;;;;;;;9.80;9.00;;;;;12.72;37.84;97620.53;5049045;28;8856;-75
2023/04/14 04:56:49;;;;;;;;;4.00;3.00;;;;;12.74;37.38;97623.06;5060407;28;8901;-75
2023/04/14 04:59:17;;;;;;;;;12.40;9.40;;;;;12.79;37.42;97622.78;5075194;28;8861;-75
2023/04/14 05:01:46;;;;;;;;;10.60;9.40;;;;;12.74;37.47;97629.19;5090765;28;8857;-75
2023/04/14 05:04:15;;;;;;;;;10.40;8.60;;;;;12.69;37.40;97628.63;5102443;28;8839;-75
2023/04/14 05:06:45;;;;;;;;;9.00;8.20;;;;;12.72;36.99;97631.06;5093979;28;9591;-75
2023/04/14 05:09:15;;;;;;;;;8.00;5.00;;;;;12.69;36.94;97625.13;5039007;28;8875;-74
2023/04/14 05:11:44;;;;;;;;;6.60;6.60;;;;;12.70;37.41;97625.03;5059182;28;8850;-75
2023/04/14 05:14:13;;;;;;;;;6.20;6.20;;;;;12.90;36.80;97623.00;5063450;28;9714;-75
2023/04/14 05:16:41;;;;;;;;;5.00;5.00;;;;;12.82;36.72;97626.06;5060633;28;8846;-76
2023/04/14 05:19:35;;;;;;;;;5.40;5.40;;;;;13.11;36.07;97626.13;5050847;28;8967;-75
2023/04/14 05:22:04;;;;;;;;;7.00;5.60;;;;;12.97;36.51;97620.84;5052949;28;8864;-74
2023/04/14 05:24:34;;;;;;;;;4.80;4.40;;;;;12.94;36.13;97643.00;5051880;28;8841;-74
2023/04/14 05:27:03;;;;;;;;;4.00;4.00;;;;;13.09;35.89;97657.00;5068017;28;8819;-75
2023/04/14 05:29:42;;;;;;;;;6.00;5.00;;;;;13.15;35.51;97659.28;5054533;28;8951;-76
2023/04/14 05:32:13;;;;;;;;;5.20;5.20;;;;;13.32;34.83;97663.50;5059119;28;8869;-75
2023/04/14 05:34:42;;;;;;;;;5.20;5.00;;;;;13.45;34.73;97659.16;5057782;28;8877;-75
2023/04/14 05:37:11;;;;;;;;;5.40;4.60;;;;;13.34;35.08;97682.75;5061898;28;8836;-75
2023/04/14 05:39:41;;;;;;;;;5.40;5.40;;;;;13.64;34.79;97690.53;5048168;28;8848;-76
2023/04/14 05:42:10;;;;;;;;;7.60;7.00;;;;;13.80;34.66;97729.16;5052215;28;8872;-76
2023/04/14 05:44:38;;;;;;;;;6.00;5.40;;;;;13.59;34.89;97748.03;5048463;28;8876;-74
2023/04/14 05:47:07;;;;;;;;;7.60;7.60;;;;;13.58;34.82;97761.31;5049693;28;8857;-75
2023/04/14 05:49:36;;;;;;;;;10.80;9.00;;;;;13.78;34.70;97768.84;5052303;28;8878;-74
2023/04/14 05:52:05;;;;;;;;;5.80;5.80;;;;;12.62;35.89;97787.25;5045112;28;8872;-74
2023/04/14 05:55:00;;;;;;;;;9.00;8.20;;;;;13.62;35.06;97768.97;5022471;28;8868;-75
2023/04/14 05:57:31;;;;;;;;;8.80;8.00;;;;;13.79;34.42;97764.41;5059634;28;8868;-75
2023/04/14 05:59:59;;;;;;;;;8.40;8.40;;;;;13.76;34.30;97773.38;5061599;28;8898;-75
2023/04/14 06:02:31;;;;;;;;;6.20;5.00;;;;;14.14;34.56;97777.22;5048881;28;8845;-74
2023/04/14 06:05:00;;;;;;;;;8.00;8.00;;;;;14.13;35.12;97788.72;5059188;28;8861;-73
2023/04/14 06:07:29;;;;;;;;;9.00;8.20;;;;;13.51;36.05;97800.47;5046684;28;8880;-75
2023/04/14 06:10:00;;;;;;;;;10.20;10.00;;;;;13.21;39.38;97803.16;5052297;28;8976;-74
2023/04/14 06:12:29;;;;;;;;;10.40;9.40;;;;;13.50;39.78;97804.03;5033342;28;8855;-74
2023/04/14 06:14:59;;;;;;;;;12.80;12.60;;;;;13.47;41.21;97812.16;5066709;28;8923;-75
2023/04/14 06:17:28;;;;;;;;;14.80;12.00;;;;;11.75;50.63;97823.56;5067656;28;8892;-75
2023/04/14 06:19:57;;;;;;;;;10.60;10.40;;;;;11.32;55.07;97825.81;5062450;28;8869;-74
2023/04/14 06:22:28;;;;;;;;;12.80;11.00;;;;;11.70;55.78;97824.75;5067771;28;8866;-74
2023/04/14 06:24:57;;;;;;;;;11.20;10.80;;;;;11.33;59.71;97827.53;5050562;28;8879;-76
2023/04/14 06:27:27;;;;;;;;;15.40;14.00;;;;;11.25;61.99;97828.84;5047427;28;8858;-74
2023/04/14 06:29:58;;;;;;;;;13.60;12.60;;;;;10.68;65.09;97823.78;5047776;28;8837;-75
2023/04/14 06:32:27;;;;;;;;;12.80;12.00;;;;;11.17;63.08;97821.34;5047673;28;8829;-75
2023/04/14 06:34:56;;;;;;;;;14.60;14.00;;;;;10.80;65.50;97828.44;5052864;28;8862;-75
2023/04/14 06:37:25;;;;;;;;;16.80;15.00;;;;;10.65;66.59;97831.81;5053816;28;8861;-76
2023/04/14 06:39:54;;;;;;;;;13.20;12.00;;;;;10.68;66.49;97842.16;5066564;28;8878;-74
2023/04/14 06:42:50;;;;;;;;;10.40;10.40;;;;;10.77;66.66;97844.38;5068624;28;9600;-76
2023/04/14 06:45:44;;;;;;;;;10.80;10.80;;;;;10.47;68.16;97842.28;5071463;28;8872;-75
2023/04/14 06:48:14;;;;;;;;;11.40;9.40;;;;;10.87;66.26;97829.84;5054342;28;9706;-75
2023/04/14 06:50:43;;;;;;;;;12.00;10.20;;;;;11.27;64.34;97840.97;5060240;28;8862;-75
2023/04/14 06:53:12;;;;;;;;;17.40;12.40;;;;;11.08;64.90;97842.84;5051385;28;8883;-75
2023/04/14 06:55:41;;;;;;;;;13.40;13.40;;;;;11.32;63.94;97848.66;5047704;28;8910;-75
2023/04/14 06:58:12;;;;;;;;;17.20;13.60;;;;;11.05;65.30;97853.50;5046386;28;8837;-75
2023/04/14 07:00:40;;;;;;;;;18.40;13.20;;;;;11.25;63.77;97857.78;5047361;28;8994;-74
2023/04/14 07:03:09;;;;;;;;;15.60;13.60;;;;;10.15;67.84;97862.19;5052542;28;8868;-75
2023/04/14 07:05:38;;;;;;;;;13.00;12.60;;;;;10.10;69.10;97861.53;5032872;28;8988;-75
2023/04/14 07:08:07;;;;;;;;;15.20;13.60;;;;;10.59;67.39;97865.34;5047550;28;8899;-76
2023/04/14 07:10:36;;;;;;;;;11.60;11.20;;;;;9.24;71.04;97874.88;5073492;28;8830;-78
2023/04/14 07:13:05;;;;;;;;;10.80;9.20;;;;;9.75;70.57;97880.59;5045476;28;8873;-75
2023/04/14 07:15:35;;;;;;;;;8.00;8.00;;;;;9.75;69.39;97882.38;5055201;28;9637;-76
2023/04/14 07:18:04;;;;;;;;;7.00;6.00;;;;;9.22;69.86;97868.84;5098200;28;8866;-76
2023/04/14 07:20:33;;;;;;;;;8.00;6.40;;;;;9.08;70.79;97896.53;5061530;28;8847;-75
2023/04/14 07:23:02;;;;;;;;;6.20;6.20;;;;;9.09;70.69;97896.50;5054931;28;8855;-77
2023/04/14 07:25:57;;;;;;;;;6.80;6.40;;;;;9.41;69.88;97895.13;5082381;28;8854;-78
2023/04/14 07:28:27;;;;;;;;;5.00;5.00;;;;;9.49;69.15;97896.59;5076969;28;8882;-76
2023/04/14 07:31:22;;;;;;;;;5.60;4.80;;;;;10.18;67.63;97899.66;5064923;28;8864;-77
2023/04/14 07:33:51;;;;;;;;;7.20;7.20;;;;;9.99;66.71;97904.88;5070204;28;8846;-78
2023/04/14 07:36:20;;;;;;;;;3.20;3.20;;;;;10.39;65.83;97910.94;5036407;28;8890;-78
2023/04/14 07:38:50;;;;;;;;;9.60;8.80;;;;;10.69;65.33;97915.69;5043527;28;8967;-78
2023/04/14 07:41:22;;;;;;;;;6.40;6.40;;;;;11.02;64.85;97919.41;5024291;28;9710;-78
2023/04/14 07:43:54;;;;;;;;;4.40;4.40;;;;;11.02;63.72;97930.78;5008279;28;8860;-78
2023/04/14 07:46:24;;;;;;;;;7.40;6.40;;;;;11.12;63.75;97916.28;5043894;28;9720;-77
2023/04/14 07:48:54;;;;;;;;;5.40;5.40;;;;;9.36;68.51;97922.47;5041950;28;8866;-79
2023/04/14 07:51:23;;;;;;;;;7.00;7.00;;;;;8.88;71.80;97920.97;5009234;28;8862;-78
2023/04/14 07:53:52;;;;;;;;;7.60;7.00;;;;;9.55;69.05;97923.38;5025221;28;8899;-79
2023/04/14 07:56:21;;;;;;;;;7.60;7.60;;;;;9.99;68.01;97938.16;5036441;28;8943;-77
2023/04/14 07:58:50;;;;;;;;;7.60;7.60;;;;;10.09;66.80;97933.34;5045387;28;8870;-78
2023/04/14 08:01:18;;;;;;;;;7.40;6.60;;;;;10.46;66.10;97950.06;5014024;28;8905;-78
2023/04/14 08:03:49;;;;;;;;;6.00;6.00;;;;;10.75;65.55;97960.09;5026829;28;8837;-78
2023/04/14 08:06:19;;;;;;;;;6.60;6.00;;;;;10.77;64.25;97955.63;5045643;28;8862;-79
2023/04/14 08:08:48;;;;;;;;;6.20;6.20;;;;;11.00;64.13;97965.97;5031317;28;8980;-78
2023/04/14 08:11:17;;;;;;;;;7.40;7.40;;;;;11.17;63.64;97973.88;5042761;28;9013;-82
2023/04/14 08:13:48;;;;;;;;;8.80;8.80;;;;;11.12;63.64;97983.78;5044905;28;8887;-70
2023/04/14 08:16:17;;;;;;;;;6.60;6.60;;;;;11.37;63.19;97975.56;5077927;28;8842;-70
2023/04/14 08:18:46;;;;;;;;;12.40;11.20;;;;;11.44;62.16;97976.94;5091594;28;8834;-70
2023/04/14 08:21:16;;;;;;;;;9.00;9.00;;;;;11.48;62.19;97988.16;5051689;28;8883;-74
2023/04/14 08:23:45;;;;;;;;;12.00;11.60;;;;;11.23;62.37;98001.66;5099194;28;9979;-77
2023/04/14 08:26:14;;;;;;;;;13.40;9.00;;;;;11.50;61.86;97996.81;5095954;28;8901;-73
2023/04/14 08:28:43;;;;;;;;;5.20;4.40;;;;;11.36;61.31;97990.47;5092329;28;8894;-73
2023/04/14 08:31:11;;;;;;;;;5.40;5.20;;;;;11.33;61.70;97987.13;5109667;28;8860;-73
2023/04/14 08:33:40;;;;;;;;;5.20;4.80;;;;;11.40;60.25;97991.16;5109617;28;8840;-73
2023/04/14 08:36:10;;;;;;;;;3.20;3.20;;;;;11.54;59.92;97999.25;5053908;28;8853;-74
2023/04/14 08:38:40;;;;;;;;;5.60;5.60;;;;;11.63;59.85;98007.59;5094615;28;8948;-74
2023/04/14 08:41:13;;;;;;;;;2.40;2.40;;;;;11.72;58.68;98007.97;5073144;28;8864;-75
2023/04/14 08:43:43;;;;;;;;;3.00;3.00;;;;;11.59;59.37;98017.41;5091570;28;8857;-72
2023/04/14 08:46:14;;;;;;;;;2.80;2.80;;;;;11.80;58.55;98020.75;5036183;28;8926;-74
2023/04/14 08:48:47;;;;;;;;;2.80;2.40;;;;;11.97;58.58;98030.47;5089123;28;9602;-75
2023/04/14 08:51:32;;;;;;;;;3.00;3.00;;;;;12.10;58.46;98028.06;5090439;28;8868;-73
2023/04/14 08:54:05;;;;;;;;;2.00;2.00;;;;;12.03;58.05;98038.09;5083705;28;8848;-73
2023/04/14 08:56:36;;;;;;;;;3.20;3.20;;;;;11.85;57.41;98037.22;5092211;28;8884;-73
2023/04/14 08:59:07;;;;;;;;;3.00;3.00;;;;;12.03;57.66;98045.97;5083954;28;9652;-74
2023/04/14 09:01:37;;;;;;;;;7.00;3.60;;;;;11.71;57.07;98053.69;5087963;28;8830;-75
2023/04/14 09:04:07;;;;;;;;;6.00;5.60;;;;;11.40;58.72;98048.22;5089542;28;9666;-75
2023/04/14 09:06:37;;;;;;;;;4.00;4.00;;;;;11.64;58.32;98049.63;5070361;28;8870;-72
2023/04/14 09:09:09;;;;;;;;;2.80;2.80;;;;;11.49;56.87;98066.19;5036247;28;8862;-73
2023/04/14 09:11:38;;;;;;;;;3.40;3.00;;;;;11.63;57.79;98076.88;5087988;28;8888;-75
2023/04/14 09:14:08;;;;;;;;;3.60;3.60;;;;;11.27;57.37;98072.44;5088782;28;8865;-74
2023/04/14 09:16:37;;;;;;;;;3.60;2.40;;;;;11.46;58.94;98063.69;5089042;28;8873;-74
2023/04/14 09:19:08;;;;;;;;;3.00;3.00;;;;;11.42;59.08;98059.50;5072750;28;8856;-74
2023/04/14 09:21:42;;;;;;;;;5.20;4.00;;;;;11.69;58.23;98063.44;5023242;28;8868;-75
2023/04/14 09:24:28;;;;;;;;;3.60;3.60;;;;;11.63;59.14;98055.81;5088632;28;8834;-75
2023/04/14 09:27:02;;;;;;;;;4.20;4.20;;;;;11.70;58.38;98049.31;5073544;28;8901;-75
2023/04/14 09:29:32;;;;;;;;;7.60;5.20;;;;;11.66;57.73;98058.31;5086021;28;8841;-73
2023/04/14 09:32:00;;;;;;;;;4.00;3.80;;;;;11.41;58.08;98065.69;5087133;28;8869;-80
2023/04/14 09:34:30;;;;;;;;;6.40;6.00;;;;;11.42;59.12;98076.13;5064861;28;8855;-81
2023/04/14 09:37:02;;;;;;;;;6.40;5.60;;;;;11.70;58.09;98083.53;5049242;28;8985;-81
2023/04/14 09:39:33;;;;;;;;;6.00;6.00;;;;;11.88;58.34;98086.22;5045188;28;8863;-80
2023/04/14 09:42:03;;;;;;;;;8.40;4.80;;;;;11.82;57.33;98097.03;5025945;28;8863;-78
2023/04/14 09:44:32;;;;;;;;;4.00;4.00;;;;;11.75;57.66;98091.25;5050481;28;8920;-79
2023/04/14 09:47:03;;;;;;;;;7.80;6.80;;;;;11.53;56.41;98080.91;5049409;28;8867;-77
2023/04/14 09:49:34;;;;;;;;;6.40;3.80;;;;;11.05;58.45;98084.91;5047530;28;8944;-79
2023/04/14 09:52:05;;;;;;;;;7.40;7.20;;;;;11.23;57.14;98081.41;5032432;28;8894;-79
2023/04/14 09:54:36;;;;;;;;;7.20;7.00;;;;;11.56;57.62;98075.50;5049238;28;9005;-78
2023/04/14 09:57:05;;;;;;;;;4.40;4.00;;;;;11.67;55.54;98081.09;5049041;28;9071;-79
2023/04/14 09:59:35;;;;;;;;;8.80;8.00;;;;;11.70;55.40;98075.66;5030824;28;8887;-81
2023/04/14 10:02:05;;;;;;;;;8.00;8.00;;;;;11.91;55.47;98070.28;5047037;28;8870;-80
2023/04/14 10:04:36;;;;;;;;;7.00;6.60;;;;;12.08;55.47;98082.59;5052209;28;8962;-79
2023/04/14 10:07:07;;;;;;;;;8.60;8.60;;;;;12.25;54.62;98081.75;5048375;28;8863;-80
2023/04/14 10:09:39;;;;;;;;;7.00;6.00;;;;;12.37;53.75;98088.16;5041895;28;8886;-79
2023/04/14 10:12:12;;;;;;;;;3.60;3.60;;;;;12.37;54.35;98073.19;5094330;28;8844;-79
2023/04/14 10:14:42;;;;;;;;;3.00;2.80;;;;;12.51;54.04;98080.41;5085015;28;8881;-78
2023/04/14 10:17:12;;;;;;;;;6.00;6.00;;;;;12.64;54.90;98080.63;5086165;28;8849;-77
2023/04/14 10:19:41;;;;;;;;;11.20;11.20;;;;;12.59;54.05;98069.44;5056570;28;8862;-79
2023/04/14 10:22:11;;;;;;;;;11.40;8.80;;;;;12.71;53.56;98074.94;5039926;28;9623;-79
2023/04/14 10:24:42;;;;;;;;;11.60;9.00;;;;;12.78;52.01;98078.06;5023660;28;8890;-79
2023/04/14 10:27:12;;;;;;;;;11.60;9.80;;;;;12.36;51.35;98065.41;5095219;28;8856;-78
2023/04/14 10:29:41;;;;;;;;;12.20;10.80;;;;;12.63;53.67;98061.28;5090488;28;8882;-81
2023/04/14 10:32:35;;;;;;;;;14.80;14.40;;;;;12.56;51.64;98066.97;4969166;28;8987;-78
2023/04/14 10:35:06;;;;;;;;;13.60;13.40;;;;;12.70;51.13;98091.66;4929922;28;8858;-81
2023/04/14 10:37:35;;;;;;;;;13.60;12.80;;;;;12.86;50.94;98106.69;4953769;28;8913;-81
2023/04/14 10:40:07;;;;;;;;;21.60;17.80;;;;;12.87;50.26;98106.63;4970469;28;8869;-78
2023/04/14 10:42:52;;;;;;;;;14.80;14.80;;;;;13.17;50.27;98079.53;4988367;28;8952;-78
2023/04/14 10:45:21;;;;;;;;;19.60;16.00;;;;;13.09;49.80;98087.00;4999393;28;8884;-79
2023/04/14 10:47:51;;;;;;;;;10.00;9.80;;;;;13.23;49.17;98088.88;4987076;28;9023;-80
2023/04/14 10:50:23;;;;;;;;;13.60;11.00;;;;;13.49;48.48;98098.00;4996118;28;8975;-78
2023/04/14 10:52:54;;;;;;;;;15.80;14.20;;;;;13.77;48.78;98101.69;5040511;28;8904;-78
2023/04/14 10:55:27;;;;;;;;;15.60;12.40;;;;;13.98;49.37;98097.88;5027959;28;8952;-79
2023/04/14 10:58:05;;;;;;;;;11.80;11.80;;;;;14.46;48.06;98105.63;5025871;28;9037;-79
2023/04/14 11:00:38;;;;;;;;;13.60;10.20;;;;;14.65;47.42;98108.00;5012898;28;9042;-79
2023/04/14 11:03:10;;;;;;;;;6.80;5.80;;;;;14.64;43.91;98122.16;5059803;28;8859;-79
2023/04/14 11:05:43;;;;;;;;;5.00;5.00;;;;;14.71;42.05;98127.94;5068337;28;9637;-80
2023/04/14 11:08:13;;;;;;;;;4.20;3.60;;;;;14.83;42.00;98122.78;5053595;28;8850;-79
2023/04/14 11:10:50;;;;;;;;;6.80;6.80;;;;;15.05;42.74;98127.59;5070364;28;9382;-80
2023/04/14 11:13:19;;;;;;;;;10.00;8.60;;;;;14.85;42.68;98122.69;5070344;28;8854;-79
2023/04/14 11:15:50;;;;;;;;;5.60;5.60;;;;;15.08;42.64;98123.91;5020719;28;8842;-79
2023/04/14 11:18:32;;;;;;;;;6.80;5.40;;;;;15.55;42.71;98130.66;5053870;28;8872;-80
2023/04/14 11:21:04;;;;;;;;;5.20;5.20;;;;;15.55;42.18;98137.75;5088801;28;8830;-79
2023/04/14 11:23:34;;;;;;;;;5.60;5.60;;;;;15.58;43.16;98134.91;5088419;28;8885;-79
2023/04/14 11:26:07;;;;;;;;;8.60;5.80;;;;;15.69;41.03;98127.13;5073549;28;8875;-79
2023/04/14 11:28:37;;;;;;;;;5.20;5.20;;;;;15.79;42.01;98117.66;5045197;28;8870;-78
2023/04/14 11:31:08;;;;;;;;;4.40;4.40;;;;;15.21;40.59;98108.97;5045406;28;9717;-79
2023/04/14 11:33:40;;;;;;;;;7.00;6.00;;;;;15.49;41.55;98101.94;5030845;28;8890;-79
2023/04/14 11:36:11;;;;;;;;;3.00;3.00;;;;;15.76;40.50;98114.34;5028774;28;8857;-77
2023/04/14 11:38:40;;;;;;;;;2.40;2.40;;;;;15.48;38.76;98128.50;4996320;28;8998;-80
2023/04/14 11:41:15;;;;;;;;;2.00;2.00;;;;;15.88;39.04;98125.94;5042188;28;8857;-81
2023/04/14 11:43:47;;;;;;;;;5.20;5.20;;;;;15.98;39.63;98117.28;5049332;28;8882;-78
2023/04/14 11:46:20;;;;;;;;;2.80;2.00;;;;;16.27;39.76;98116.31;5049701;28;8862;-79
2023/04/14 11:48:54;;;;;;;;;4.00;4.00;;;;;16.39;38.48;98103.03;5048246;28;8862;-80
2023/04/14 11:51:29;;;;;;;;;4.20;4.20;;;;;16.34;39.10;98091.03;5046297;28;8846;-80
2023/04/14 11:54:00;;;;;;;;;5.20;5.20;;;;;16.40;38.84;98088.84;5032297;28;8912;-78
2023/04/14 11:56:31;;;;;;;;;4.00;4.00;;;;;16.52;38.30;98102.25;5048728;28;8892;-79